Flight Track Log - Related Links

Times and Time Zones

All times are in EDT time to prevent confusion due to time zone crossing. See the TMC875 flight status page for this flight to view local times or setup timezone preferences in your user account.

Time Position Orientation Groundspeed Altitude Reporting Facility
EDT Latitude Longitude Course Direction KTS MPH feet Rate Location/Type
Thu 08:39:35 AM 40.8833 -74.0333 323° Northwest 189 217 1,800  Level New York TRACON
Thu 08:40:35 AM 40.9167 -74.0667 323° Northwest 216 249 1,900 400 Climbing New York TRACON
Thu 08:41:35 AM 40.9167 -74.1500 270° West 218 251 2,600 1,850 Climbing New York TRACON
Thu 08:42:35 AM 40.9500 -74.2000 311° West 235 270 5,600 1,103 Climbing New York TRACON
Thu 08:44:40 AM 41.0847 -74.1611 12° North 277 319 6,000 259 Climbing Boston Center
Thu 08:45:40 AM 41.1372 -74.1267 26° Northeast 236 272 6,400 1,800 Climbing Boston Center
Thu 08:46:40 AM 41.1803 -74.0342 58° Northeast 246 283 9,600 2,700 Climbing Boston Center
Thu 08:47:40 AM 41.2069 -73.9272 72° East 287 330 11,800 2,550 Climbing Boston Center
Thu 08:48:40 AM 41.2358 -73.7869 75° East 346 398 14,700 2,150 Climbing Boston Center
Thu 08:49:40 AM 41.2619 -73.6661 74° East 370 426 16,100 1,650 Climbing Boston Center
Thu 08:50:40 AM 41.3239 -73.5236 60° Northeast 388 447 18,000 2,100 Climbing Boston Center
Thu 08:51:40 AM 41.4042 -73.4225 43° Northeast 411 473 20,300 1,500 Climbing Boston Center
Thu 08:52:40 AM 41.4967 -73.3103 42° Northeast 430 495 21,000 350 Climbing Boston Center
Thu 08:53:40 AM 41.6158 -73.2619 17° North 431 496 21,000  Level Boston Center
Thu 08:54:40 AM 41.7408 -73.2692 358° North 426 490 21,000  Level Boston Center
Thu 08:55:40 AM 41.8658 -73.2764 358° North 431 496 21,000  Level Boston Center
Thu 08:56:40 AM 42.0014 -73.2839 358° North 436 502 21,000  Level Boston Center
Thu 08:57:40 AM 42.1283 -73.2939 357° North 441 507 21,000  Level Boston Center
Thu 08:58:40 AM 42.2553 -73.3011 358° North 446 513 21,000  Level Boston Center
Thu 08:59:40 AM 42.3722 -73.2944 North 453 521 21,000  Level Boston Center
Thu 09:00:40 AM 42.4994 -73.2850 North 458 527 21,000  Level Boston Center
Thu 09:01:40 AM 42.6389 -73.2839 360° North 458 527 21,000  Level Boston Center
Thu 09:02:40 AM 42.7683 -73.2744 North 458 527 21,000  Level Boston Center
Thu 09:03:40 AM 42.8956 -73.2647 North 458 527 21,000  Level Boston Center
Thu 09:04:40 AM 43.0247 -73.2581 North 458 527 21,000  Level Boston Center
Thu 09:05:40 AM 43.1500 -73.2397 North 458 527 21,000  Level Boston Center
Thu 09:06:40 AM 43.2733 -73.1872 17° North 458 527 21,000  Level Boston Center
Thu 09:07:40 AM 43.3967 -73.1317 18° North 458 527 21,000  Level Boston Center
Thu 09:08:40 AM 43.5197 -73.0786 17° North 458 527 21,000  Level Boston Center
Thu 09:09:40 AM 43.6431 -73.0253 17° North 458 527 21,000 -50 Level Boston Center
Thu 09:10:40 AM 43.7517 -72.9719 20° North 458 527 20,900 -1,300 Descending Boston Center
Thu 09:11:40 AM 43.8686 -72.9181 18° North 458 527 18,400 -2,550 Descending Boston Center
Thu 09:12:40 AM 43.9792 -72.8700 17° North 431 496 15,800 -2,550 Descending Boston Center
Thu 09:13:40 AM 44.0836 -72.8303 15° North 359 413 13,300 -2,300 Descending Boston Center
Thu 09:14:40 AM 44.1733 -72.7961 15° North 333 383 11,200 -2,000 Descending Boston Center
Thu 09:15:40 AM 44.2547 -72.7561 19° North 314 361 9,300 -1,750 Descending Boston Center
Thu 09:16:40 AM 44.3172 -72.7419 North 233 268 7,700 -1,350 Descending Boston Center
Thu 09:17:40 AM 44.3442 -72.8000 303° West 172 198 6,600 -1,100 Descending Boston Center
Thu 09:18:40 AM 44.3647 -72.8583 296° West 160 184 5,500 -1,000 Descending Boston Center
Thu 09:19:40 AM 44.3833 -72.9194 293° West 165 190 4,600 -950 Descending Boston Center
Thu 09:20:40 AM 44.4017 -72.9719 296° West 165 190 3,600 -950 Descending Boston Center
Thu 09:21:40 AM 44.4203 -73.0242 297° West 160 184 2,700 -950 Descending Boston Center
Thu 09:22:40 AM 44.4344 -73.0767 291° West 150 173 1,700 -850 Descending Boston Center
Thu 09:23:40 AM 44.4489 -73.1147 298° West 139 160 1,000 -650 Descending Boston Center
Thu 09:24:40 AM 44.4656 -73.1469 306° West 126 145 400 -600 Descending Boston Center
Thu 09:26:00 AM 44.4667 -73.1500 295° West  Level FlightAware Approximate
Thu 09:33:00 AM 44.4719 -73.1533 295° West  Level Estimated
Thu 09:34:00 AM 44.4667 -73.1500 295° West  Level FlightAware Approximate
Thu 09:35:00 AM 44.4719 -73.1533 295° West  Level Estimated

Login

Don't have an account? Register now (free) for customized features, flight alerts, and more!